Time;durP1;ratioP1;P1;durP2;ratioP2;P2;SDS_P1;SDS_P2;PMS_P1;PMS_P2;Temp;Humidity;BMP_temperature;BMP_pressure;BME280_temperature;BME280_humidity;BME280_pressure;Samples;Min_cycle;Max_cycle;Signal;HPM_P1;HPM_P2
2022/06/15 00:01:05;;;;;;;6.47;4.22;;;;;;;23.40;49.72;102125.09;5081254;28;20040;-55
2022/06/15 00:03:36;;;;;;;6.55;4.13;;;;;;;23.39;49.31;102125.25;5075851;28;20147;-55
2022/06/15 00:06:08;;;;;;;6.75;4.15;;;;;;;23.36;49.71;102126.44;5073088;28;20134;-55
2022/06/15 00:08:35;;;;;;;7.00;3.88;;;;;;;23.36;49.93;102122.88;5074171;28;20055;-55
2022/06/15 00:11:14;;;;;;;6.25;4.05;;;;;;;23.34;49.65;102122.19;5079833;28;20044;-55
2022/06/15 00:13:41;;;;;;;7.90;4.20;;;;;;;23.33;49.26;102126.75;5072015;28;20146;-55
2022/06/15 00:16:08;;;;;;;9.60;4.50;;;;;;;23.32;49.46;102126.91;5073804;28;20050;-56
2022/06/15 00:18:36;;;;;;;7.13;4.13;;;;;;;23.31;49.38;102123.31;5072982;28;20044;-56
2022/06/15 00:21:04;;;;;;;7.30;3.58;;;;;;;23.29;50.01;102121.81;5076759;28;20066;-53
2022/06/15 00:23:32;;;;;;;9.77;3.92;;;;;;;23.28;49.49;102126.38;5075521;28;20230;-54
2022/06/15 00:25:59;;;;;;;6.18;4.00;;;;;;;23.28;49.84;102133.66;5074372;28;20044;-55
2022/06/15 00:28:26;;;;;;;4.90;3.50;;;;;;;23.26;49.64;102131.06;5077991;28;20052;-54
2022/06/15 00:30:53;;;;;;;5.45;3.42;;;;;;;23.26;49.64;102127.53;5077151;28;20058;-55
2022/06/15 00:33:26;;;;;;;7.15;4.60;;;;;;;23.25;49.84;102128.53;5071648;28;20048;-54
2022/06/15 00:36:05;;;;;;;5.28;3.53;;;;;;;23.22;50.25;102132.41;5073109;28;20183;-55
2022/06/15 00:38:42;;;;;;;6.68;4.13;;;;;;;23.23;49.67;102125.13;5071769;28;20044;-55
2022/06/15 00:41:12;;;;;;;5.38;3.65;;;;;;;23.22;49.71;102128.84;5076508;28;20062;-54
2022/06/15 00:43:42;;;;;;;7.00;3.72;;;;;;;23.21;50.14;102116.34;5074338;28;20051;-53
2022/06/15 00:46:31;;;;;;;5.88;3.92;;;;;;;23.20;50.17;102123.59;5074325;28;20044;-53
2022/06/15 00:49:13;;;;;;;5.85;3.47;;;;;;;23.19;49.78;102119.19;5073655;28;20104;-53
2022/06/15 00:51:40;;;;;;;4.85;3.15;;;;;;;23.18;50.17;102122.91;5073181;28;20072;-54
2022/06/15 00:54:08;;;;;;;5.18;3.42;;;;;;;23.17;50.08;102115.78;5072978;28;20138;-54
2022/06/15 00:56:36;;;;;;;4.75;2.97;;;;;;;23.15;50.16;102121.34;5077218;28;20170;-53
2022/06/15 00:59:34;;;;;;;6.43;3.65;;;;;;;23.13;49.85;102119.81;5079627;28;20036;-54
2022/06/15 01:02:01;;;;;;;6.68;3.22;;;;;;;23.13;49.73;102117.97;5063317;28;20553;-54
2022/06/15 01:04:39;;;;;;;5.55;3.30;;;;;;;23.12;50.53;102108.16;5075778;28;20056;-53
2022/06/15 01:07:31;;;;;;;4.85;3.35;;;;;;;23.10;50.24;102112.00;5075470;28;20044;-54
2022/06/15 01:10:17;;;;;;;5.28;3.40;;;;;;;23.10;49.92;102110.16;5075868;28;20281;-55
2022/06/15 01:13:09;;;;;;;5.43;3.17;;;;;;;23.09;50.13;102108.47;5075042;28;20135;-54
2022/06/15 01:16:06;;;;;;;8.35;3.55;;;;;;;23.07;50.57;102099.63;5077790;28;20052;-54
2022/06/15 01:18:56;;;;;;;4.63;3.10;;;;;;;23.05;50.49;102096.25;5072348;28;20060;-53
2022/06/15 01:21:30;;;;;;;5.50;2.88;;;;;;;23.06;50.42;102103.34;5076878;28;20044;-54
2022/06/15 01:24:33;;;;;;;4.28;2.85;;;;;;;23.04;50.46;102101.84;5077477;28;20445;-52
2022/06/15 01:27:37;;;;;;;5.03;2.95;;;;;;;23.02;50.41;102107.38;5072696;28;20139;-53
2022/06/15 01:30:25;;;;;;;4.85;3.08;;;;;;;23.02;50.16;102101.97;5075642;28;20059;-54
2022/06/15 01:33:26;;;;;;;5.55;3.15;;;;;;;23.00;50.46;102097.75;5076215;28;20055;-53
2022/06/15 01:36:10;;;;;;;5.35;2.85;;;;;;;22.99;50.24;102099.56;5073294;28;20598;-55
2022/06/15 01:39:02;;;;;;;5.82;3.00;;;;;;;22.98;50.71;102097.03;5073459;28;20140;-53
2022/06/15 01:41:31;;;;;;;4.55;3.05;;;;;;;22.97;50.09;102093.50;5071810;28;20313;-54
2022/06/15 01:44:18;;;;;;;6.05;3.10;;;;;;;22.95;50.38;102092.78;5075404;28;20050;-54
2022/06/15 01:46:46;;;;;;;4.00;2.90;;;;;;;22.96;50.56;102096.34;5068383;28;20145;-52
2022/06/15 01:49:21;;;;;;;4.45;3.00;;;;;;;22.93;50.46;102089.41;5071110;28;20499;-53
2022/06/15 01:51:48;;;;;;;3.35;2.45;;;;;;;22.93;50.24;102085.84;5077020;28;20050;-53
2022/06/15 01:54:52;;;;;;;4.78;2.42;;;;;;;22.91;50.71;102091.38;5074356;28;20044;-53
2022/06/15 01:57:21;;;;;;;4.10;2.95;;;;;;;22.92;50.84;102095.81;5057103;28;20442;-54
2022/06/15 01:59:55;;;;;;;3.80;2.83;;;;;;;22.89;51.02;102090.69;5072446;28;20044;-54
2022/06/15 02:02:30;;;;;;;3.70;2.90;;;;;;;22.87;50.73;102087.25;5070403;28;20048;-54
2022/06/15 02:05:07;;;;;;;4.32;2.83;;;;;;;22.86;50.79;102082.88;5066351;28;20594;-53
2022/06/15 02:07:39;;;;;;;4.78;3.00;;;;;;;22.87;50.70;102076.44;5075723;28;20041;-53
2022/06/15 02:10:13;;;;;;;3.65;2.40;;;;;;;22.84;50.86;102080.34;5070784;28;20040;-54
2022/06/15 02:12:46;;;;;;;3.92;2.75;;;;;;;22.83;50.94;102075.91;5071587;28;20111;-53
2022/06/15 02:15:16;;;;;;;4.22;2.78;;;;;;;22.81;50.92;102071.69;5074678;28;20048;-53
2022/06/15 02:17:46;;;;;;;3.88;2.30;;;;;;;22.82;50.88;102070.66;5075762;28;20054;-53
2022/06/15 02:20:19;;;;;;;4.28;2.47;;;;;;;22.81;50.95;102069.81;5078611;28;20334;-53
2022/06/15 02:22:49;;;;;;;;;;;;;;;22.81;51.13;102063.56;5073668;28;20056;-52
2022/06/15 02:25:20;;;;;;;4.72;2.78;;;;;;;22.82;50.69;102067.97;5080297;28;19934;-54
2022/06/15 02:27:50;;;;;;;4.65;2.53;;;;;;;22.80;50.77;102062.72;5077884;28;20059;-54
2022/06/15 02:30:20;;;;;;;3.13;2.05;;;;;;;22.78;50.99;102066.59;5081465;28;20616;-54
2022/06/15 02:32:48;;;;;;;4.13;2.60;;;;;;;22.77;50.94;102064.88;5078235;28;20044;-53
2022/06/15 02:35:17;;;;;;;3.75;2.42;;;;;;;22.76;51.21;102066.75;5076934;28;20040;-53
2022/06/15 02:37:45;;;;;;;4.22;2.33;;;;;;;22.75;50.74;102061.47;5079725;28;20072;-53
2022/06/15 02:40:23;;;;;;;3.70;2.05;;;;;;;22.74;50.99;102059.78;5073647;28;20051;-53
2022/06/15 02:42:50;;;;;;;4.07;2.45;;;;;;;22.74;51.05;102057.09;5075878;28;20069;-54
2022/06/15 02:45:23;;;;;;;4.05;2.55;;;;;;;22.73;50.96;102060.81;5076165;28;20048;-52
2022/06/15 02:47:50;;;;;;;6.10;2.30;;;;;;;22.73;51.30;102058.09;5078173;28;20151;-52
2022/06/15 02:50:21;;;;;;;2.78;2.08;;;;;;;22.71;50.92;102058.22;5074601;28;21881;-54
2022/06/15 02:53:12;;;;;;;5.25;2.28;;;;;;;22.69;50.71;102060.25;5076701;28;20311;-54
2022/06/15 02:55:39;;;;;;;4.47;2.20;;;;;;;22.69;51.19;102057.56;5079688;28;20054;-54
2022/06/15 02:58:21;;;;;;;4.03;2.50;;;;;;;22.66;51.16;102056.00;5080748;28;20041;-53
2022/06/15 03:00:48;;;;;;;2.92;2.00;;;;;;;22.67;51.24;102057.72;5077780;28;20055;-52
2022/06/15 03:03:15;;;;;;;3.22;2.15;;;;;;;22.65;50.96;102059.72;5075552;28;20058;-52
2022/06/15 03:05:47;;;;;;;3.58;2.30;;;;;;;22.64;51.24;102062.59;5076996;28;20056;-51
2022/06/15 03:08:14;;;;;;;4.25;2.22;;;;;;;22.62;51.26;102057.31;5077978;28;20326;-53
2022/06/15 03:10:40;;;;;;;3.67;2.17;;;;;;;22.61;51.02;102055.63;5072750;28;20661;-52
2022/06/15 03:13:07;;;;;;;3.40;1.80;;;;;;;22.61;51.07;102054.78;5080435;28;20044;-53
2022/06/15 03:15:34;;;;;;;2.38;1.75;;;;;;;22.62;50.90;102062.72;5073469;28;20048;-53
2022/06/15 03:18:02;;;;;;;3.88;2.30;;;;;;;22.60;51.28;102055.78;5072768;28;20043;-50
2022/06/15 03:20:29;;;;;;;3.10;2.15;;;;;;;22.58;50.98;102055.06;5077637;28;20044;-51
2022/06/15 03:22:55;;;;;;;3.00;2.17;;;;;;;22.57;51.13;102054.22;5076322;28;20055;-53
2022/06/15 03:25:22;;;;;;;3.22;1.90;;;;;;;22.55;51.57;102056.25;5075376;28;20059;-51
2022/06/15 03:27:49;;;;;;;4.25;2.10;;;;;;;22.56;51.20;102051.69;5076456;28;20050;-49
2022/06/15 03:30:16;;;;;;;4.18;2.05;;;;;;;22.56;51.14;102054.41;5074966;28;20052;-53
2022/06/15 03:32:43;;;;;;;4.45;2.22;;;;;;;22.55;51.24;102048.16;5077328;28;20052;-53
2022/06/15 03:35:10;;;;;;;2.97;1.70;;;;;;;22.54;51.68;102053.69;5077028;28;20056;-53
2022/06/15 03:37:40;;;;;;;3.63;2.28;;;;;;;22.54;51.56;102051.00;5076635;28;20074;-53
2022/06/15 03:40:09;;;;;;;3.35;1.92;;;;;;;22.53;51.22;102049.28;5074483;28;20053;-51
2022/06/15 03:42:36;;;;;;;2.10;1.70;;;;;;;22.51;51.24;102054.00;5078117;28;20140;-52
2022/06/15 03:45:03;;;;;;;2.90;1.80;;;;;;;22.53;51.40;102052.00;5070593;28;20127;-50
2022/06/15 03:47:30;;;;;;;3.75;1.80;;;;;;;22.51;51.25;102052.13;5076473;28;20059;-50
2022/06/15 03:49:56;;;;;;;2.65;1.67;;;;;;;22.51;51.10;102056.69;5076459;28;20056;-53
2022/06/15 03:52:25;;;;;;;2.72;1.92;;;;;;;22.51;51.54;102060.25;5075514;28;20066;-53
2022/06/15 03:54:52;;;;;;;3.28;1.63;;;;;;;22.51;51.24;102060.25;5075592;28;20044;-53
2022/06/15 03:57:20;;;;;;;2.95;1.90;;;;;;;22.51;51.51;102062.09;5075051;28;20044;-54
2022/06/15 03:59:47;;;;;;;2.55;1.80;;;;;;;22.50;51.23;102063.94;5079542;28;20134;-51
2022/06/15 04:02:14;;;;;;;2.55;1.75;;;;;;;22.50;51.71;102060.41;5077316;28;20075;-51
2022/06/15 04:04:40;;;;;;;2.45;1.70;;;;;;;22.50;51.58;102053.16;5076245;28;20121;-53
2022/06/15 04:09:53;;;;;;;2.60;1.73;;;;;;;22.50;51.42;102060.41;5072503;28;20076;-52
2022/06/15 04:12:21;;;;;;;4.30;2.00;;;;;;;22.48;51.27;102048.91;5074471;28;20052;-52
2022/06/15 04:14:48;;;;;;;2.53;1.40;;;;;;;22.47;51.47;102050.75;5076619;28;20045;-53
2022/06/15 04:17:17;;;;;;;2.25;1.40;;;;;;;22.47;51.27;102045.34;5077575;28;20048;-51
2022/06/15 04:20:31;;;;;;;3.35;1.67;;;;;;;22.48;51.12;102051.63;5078536;28;20363;-50
2022/06/15 04:22:31;;;;;;;3.97;1.80;;;;;;;22.48;51.42;102046.22;5080022;28;20100;-53
2022/06/15 04:24:57;;;;;;;3.25;1.60;;;;;;;22.48;51.58;102057.03;5072871;28;20164;-53
2022/06/15 04:27:24;;;;;;;8.88;1.92;;;;;;;22.48;51.43;102059.72;5076139;28;20052;-52
2022/06/15 04:29:50;;;;;;;41.95;10.43;;;;;;;22.49;51.52;102062.25;5075554;28;20052;-53
2022/06/15 04:32:17;;;;;;;33.35;7.32;;;;;;;22.50;51.43;102065.81;5076574;28;20051;-51
2022/06/15 04:34:43;;;;;;;32.20;7.93;;;;;;;22.50;51.70;102058.56;5080802;28;20051;-53
2022/06/15 04:37:11;;;;;;;29.40;7.15;;;;;;;22.50;51.82;102058.56;5079571;28;20048;-54
2022/06/15 04:39:37;;;;;;;33.65;6.95;;;;;;;22.50;51.34;102061.25;5082780;28;20044;-52
2022/06/15 04:42:04;;;;;;;26.48;6.63;;;;;;;22.50;51.58;102063.94;5077233;28;20036;-52
2022/06/15 04:44:31;;;;;;;24.92;6.75;;;;;;;22.50;51.34;102058.56;5072792;28;20048;-53
2022/06/15 04:46:58;;;;;;;26.13;7.10;;;;;;;22.51;50.95;102060.25;5073842;28;20054;-52
2022/06/15 04:49:24;;;;;;;20.45;6.63;;;;;;;22.51;51.12;102062.94;5078791;28;20502;-54
2022/06/15 04:51:51;;;;;;;20.73;6.32;;;;;;;22.52;51.49;102061.13;5071236;28;20095;-51
2022/06/15 04:54:18;;;;;;;14.10;5.43;;;;;;;22.55;51.43;102060.78;5076683;28;20047;-52
2022/06/15 04:56:44;;;;;;;17.70;6.20;;;;;;;22.55;50.92;102072.47;5075464;28;20151;-53
2022/06/15 04:59:11;;;;;;;13.95;5.45;;;;;;;22.55;51.19;102058.97;5075191;28;20109;-51
2022/06/15 05:01:38;;;;;;;20.73;6.00;;;;;;;22.56;51.04;102066.06;5075596;28;20140;-52
2022/06/15 05:04:05;;;;;;;15.57;5.63;;;;;;;22.60;50.75;102064.75;5076517;28;20048;-53
2022/06/15 05:06:39;;;;;;;14.23;5.70;;;;;;;22.63;50.54;102068.97;5075144;28;20040;-51
2022/06/15 05:09:09;;;;;;;19.42;5.35;;;;;;;22.65;50.84;102067.81;5074426;28;20048;-53
2022/06/15 05:11:35;;;;;;;17.05;5.32;;;;;;;22.67;50.66;102064.94;5075152;28;20044;-53
2022/06/15 05:14:03;;;;;;;13.77;5.32;;;;;;;22.71;50.57;102068.19;5079886;28;20052;-53
2022/06/15 05:16:29;;;;;;;18.30;4.95;;;;;;;22.72;50.52;102068.06;5077352;28;20072;-54
2022/06/15 05:18:56;;;;;;;12.88;4.63;;;;;;;22.75;50.40;102066.88;5077290;28;20635;-54
2022/06/15 05:21:23;;;;;;;12.85;6.03;;;;;;;22.78;50.53;102063.88;5079371;28;20051;-54
2022/06/15 05:23:49;;;;;;;16.17;4.95;;;;;;;22.78;50.25;102064.72;5074545;28;20052;-53
2022/06/15 05:26:16;;;;;;;11.95;4.45;;;;;;;22.79;49.97;102062.88;5078160;28;20690;-54
2022/06/15 05:28:45;;;;;;;14.23;5.07;;;;;;;22.80;49.88;102064.59;5074995;28;20050;-53
2022/06/15 05:31:16;;;;;;;11.23;4.47;;;;;;;22.80;50.12;102060.03;5078077;28;20040;-52
2022/06/15 05:33:43;;;;;;;9.38;4.05;;;;;;;22.79;50.01;102060.16;5077074;28;20050;-55
2022/06/15 05:36:13;;;;;;;10.00;3.83;;;;;;;22.77;49.74;102060.34;5076487;28;20206;-53
2022/06/15 05:38:40;;;;;;;6.95;3.50;;;;;;;22.74;49.58;102054.38;5077062;28;20042;-51
2022/06/15 05:41:07;;;;;;;8.55;3.63;;;;;;;22.73;49.51;102058.94;5074804;28;20051;-52
2022/06/15 05:43:37;;;;;;;8.27;3.30;;;;;;;22.71;49.97;102063.63;5079188;28;20044;-53
2022/06/15 05:46:26;;;;;;;10.38;2.85;;;;;;;22.67;49.65;102060.44;5078683;28;20296;-52
2022/06/15 05:49:00;;;;;;;6.70;3.40;;;;;;;22.67;49.52;102065.84;5080714;28;20048;-53
2022/06/15 05:51:28;;;;;;;6.57;2.83;;;;;;;22.67;49.38;102057.72;5073850;28;20496;-54
2022/06/15 05:53:54;;;;;;;9.38;3.38;;;;;;;22.66;49.33;102064.09;5071717;28;20039;-51
2022/06/15 05:56:22;;;;;;;9.02;2.88;;;;;;;22.65;49.74;102072.38;5078593;28;20045;-52
2022/06/15 05:58:49;;;;;;;7.60;3.42;;;;;;;22.65;49.57;102070.53;5078949;28;20043;-54
2022/06/15 06:01:26;;;;;;;4.97;2.58;;;;;;;22.65;49.55;102072.38;5081209;28;20071;-52
2022/06/15 06:03:53;;;;;;;7.80;2.88;;;;;;;22.66;49.33;102071.38;5079044;28;20044;-55
2022/06/15 06:06:20;;;;;;;4.90;2.85;;;;;;;22.67;49.81;102081.16;5073207;28;20045;-52
2022/06/15 06:08:47;;;;;;;10.18;3.10;;;;;;;22.68;49.51;102085.59;5076728;28;20045;-53
2022/06/15 06:11:14;;;;;;;6.88;2.80;;;;;;;22.69;49.42;102072.94;5077065;28;20135;-54
2022/06/15 06:13:41;;;;;;;5.88;2.90;;;;;;;22.70;49.74;102075.47;5081219;28;20131;-53
2022/06/15 06:16:07;;;;;;;6.57;2.67;;;;;;;22.70;49.36;102075.47;5084570;28;20146;-53
2022/06/15 06:18:34;;;;;;;5.47;2.97;;;;;;;22.71;49.38;102079.00;5079141;28;20115;-54
2022/06/15 06:21:02;;;;;;;4.60;2.55;;;;;;;22.71;49.53;102074.44;5079305;28;20049;-53
2022/06/15 06:23:28;;;;;;;3.72;2.42;;;;;;;22.71;49.04;102077.16;5078405;28;20135;-51
2022/06/15 06:25:55;;;;;;;4.97;2.38;;;;;;;22.71;49.14;102073.59;5072284;28;20044;-54
2022/06/15 06:28:29;;;;;;;5.68;2.38;;;;;;;22.71;49.10;102076.31;5077351;28;20382;-54
2022/06/15 06:30:58;;;;;;;5.10;2.42;;;;;;;22.72;49.31;102067.22;5077749;28;20054;-50
2022/06/15 06:33:26;;;;;;;3.20;1.92;;;;;;;22.73;49.20;102066.22;5079659;28;20405;-54
2022/06/15 06:35:54;;;;;;;7.47;2.28;;;;;;;22.75;49.42;102069.59;5075132;28;20467;-53
2022/06/15 06:38:21;;;;;;;10.98;2.75;;;;;;;22.76;49.23;102071.31;5079129;28;20123;-55
2022/06/15 06:40:49;;;;;;;7.95;2.20;;;;;;;22.76;49.15;102074.84;5076538;28;20131;-53
2022/06/15 06:43:16;;;;;;;6.97;2.33;;;;;;;22.77;49.39;102078.41;5080892;28;20078;-53
2022/06/15 06:45:43;;;;;;;7.53;2.20;;;;;;;22.78;48.99;102082.81;5075315;28;20044;-53
2022/06/15 06:48:09;;;;;;;6.28;1.95;;;;;;;22.78;48.92;102072.84;5078253;28;20297;-52
2022/06/15 06:50:40;;;;;;;6.70;2.03;;;;;;;22.79;49.16;102077.22;5072807;28;20048;-52
2022/06/15 06:53:08;;;;;;;5.10;2.05;;;;;;;22.80;48.97;102081.66;5077558;28;20049;-53
2022/06/15 06:55:35;;;;;;;3.58;2.20;;;;;;;22.82;49.09;102084.19;5075059;28;20037;-53
2022/06/15 06:58:02;;;;;;;16.33;1.92;;;;;;;22.82;49.08;102082.34;5075214;28;20036;-54
2022/06/15 07:00:32;;;;;;;5.07;1.70;;;;;;;22.83;49.41;102085.88;5075188;28;20060;-54
2022/06/15 07:03:00;;;;;;;4.38;1.90;;;;;;;22.83;49.43;102086.72;5077132;28;20051;-53
2022/06/15 07:05:27;;;;;;;7.65;2.00;;;;;;;22.84;49.37;102095.72;5081658;28;20293;-53
2022/06/15 07:07:54;;;;;;;7.32;1.88;;;;;;;22.84;49.24;102096.56;5079788;28;20480;-54
2022/06/15 07:10:21;;;;;;;7.55;1.85;;;;;;;22.84;49.17;102101.97;5081848;28;20067;-53
2022/06/15 07:12:47;;;;;;;6.25;2.33;;;;;;;22.85;49.20;102098.25;5079612;28;20049;-53
2022/06/15 07:15:14;;;;;;;6.70;2.03;;;;;;;22.86;49.50;102105.34;5075554;28;20123;-54
2022/06/15 07:17:41;;;;;;;4.50;2.00;;;;;;;22.85;49.41;102103.66;5081320;28;20052;-53
2022/06/15 07:20:09;;;;;;;6.60;1.60;;;;;;;22.87;49.00;102103.50;5075351;28;20151;-53
2022/06/15 07:22:37;;;;;;;4.50;1.88;;;;;;;22.87;49.20;102100.78;5080529;28;20070;-54
2022/06/15 07:25:06;;;;;;;5.13;2.03;;;;;;;22.88;49.05;102099.81;5078227;28;20140;-54
2022/06/15 07:27:35;;;;;;;7.43;2.00;;;;;;;22.88;49.23;102105.22;5080731;28;20052;-53
2022/06/15 07:30:05;;;;;;;5.35;1.80;;;;;;;22.88;48.87;102111.47;5080541;28;20044;-53
2022/06/15 07:32:31;;;;;;;6.57;2.00;;;;;;;22.90;48.92;102105.88;5078596;28;20326;-54
2022/06/15 07:34:58;;;;;;;5.70;2.05;;;;;;;22.91;49.32;102104.91;5076833;28;20047;-55
2022/06/15 07:37:25;;;;;;;5.60;2.00;;;;;;;22.92;49.02;102108.50;5077067;28;20044;-54
2022/06/15 07:40:13;;;;;;;8.02;2.13;;;;;;;22.91;48.99;102110.31;5079399;28;20068;-55
2022/06/15 07:42:40;;;;;;;3.10;1.80;;;;;;;22.93;49.09;102111.03;5077586;28;20040;-55
2022/06/15 07:45:09;;;;;;;4.15;1.52;;;;;;;22.92;48.83;102106.63;5078784;28;20043;-54
2022/06/15 07:50:21;;;;;;;8.82;2.13;;;;;;;22.95;48.73;102106.31;5076363;28;20107;-55
2022/06/15 07:52:58;;;;;;;6.65;2.40;;;;;;;22.96;48.90;102107.19;5079145;28;20044;-53
2022/06/15 07:55:28;;;;;;;3.35;1.58;;;;;;;22.97;49.04;102114.28;5080292;28;20064;-54
2022/06/15 07:57:56;;;;;;;5.68;2.00;;;;;;;22.97;49.26;102112.41;5084816;28;20352;-55
2022/06/15 08:00:24;;;;;;;8.85;2.10;;;;;;;22.98;49.33;102099.75;5076877;28;20049;-54
2022/06/15 08:02:51;;;;;;;7.00;2.05;;;;;;;22.98;49.18;102103.28;5078055;28;20148;-54
2022/06/15 08:05:18;;;;;;;10.27;2.38;;;;;;;23.00;49.17;102103.16;5078500;28;20488;-55
2022/06/15 08:07:47;;;;;;;10.18;2.25;;;;;;;23.00;49.79;102103.16;5076977;28;20147;-55
2022/06/15 08:10:17;;;;;;;7.53;2.40;;;;;;;23.02;49.60;102114.66;5078050;28;20068;-55
2022/06/15 08:12:43;;;;;;;10.00;3.70;;;;;;;23.03;50.52;102113.63;5079610;28;20052;-54
2022/06/15 08:15:11;;;;;;;12.18;3.97;;;;;;;23.04;51.71;102107.25;5078541;28;20044;-55
2022/06/15 08:17:45;;;;;;;13.65;3.33;;;;;;;23.06;53.48;102107.91;5079634;28;20132;-53
2022/06/15 08:20:28;;;;;;;8.00;2.97;;;;;;;23.08;55.55;102114.88;5076626;28;20057;-54
2022/06/15 08:23:01;;;;;;;9.02;2.88;;;;;;;23.11;56.45;102105.59;5078400;28;20048;-54
2022/06/15 08:25:33;;;;;;;6.82;2.65;;;;;;;23.14;57.30;102113.41;5078173;28;20054;-55
2022/06/15 08:28:00;;;;;;;10.05;2.95;;;;;;;23.17;57.52;102104.13;5075930;28;20037;-54
2022/06/15 08:30:27;;;;;;;13.77;3.00;;;;;;;23.19;58.10;102102.09;5075836;28;20082;-55
2022/06/15 08:32:54;;;;;;;14.10;3.05;;;;;;;23.21;58.51;102097.41;5074629;28;20043;-55
2022/06/15 08:35:21;;;;;;;10.23;2.88;;;;;;;23.23;58.59;102098.06;5075444;28;20049;-55
2022/06/15 08:37:47;;;;;;;10.30;2.75;;;;;;;23.25;58.51;102096.06;5074927;28;20048;-54
2022/06/15 08:40:15;;;;;;;5.90;2.30;;;;;;;23.26;58.74;102101.31;5072082;28;20375;-55
2022/06/15 08:43:02;;;;;;;10.52;2.67;;;;;;;23.28;59.20;102093.06;5073814;28;20079;-55
2022/06/15 08:45:41;;;;;;;7.38;1.95;;;;;;;23.30;59.21;102099.16;5082674;28;20131;-52
2022/06/15 08:48:22;;;;;;;9.75;2.75;;;;;;;23.31;59.01;102100.84;5080159;28;20066;-56
2022/06/15 08:51:02;;;;;;;13.65;3.63;;;;;;;23.32;59.12;102102.56;5074421;28;20055;-54
2022/06/15 08:53:59;;;;;;;17.25;4.22;;;;;;;23.32;58.53;102100.69;5076897;28;20052;-55
2022/06/15 08:56:29;;;;;;;22.33;6.32;;;;;;;23.36;58.88;102101.25;5076177;28;20135;-55
2022/06/15 08:59:17;;;;;;;26.23;5.88;;;;;;;23.35;58.44;102102.22;5077012;28;20045;-54
2022/06/15 09:01:53;;;;;;;20.77;5.80;;;;;;;23.36;58.15;102099.38;5073159;28;20048;-55
2022/06/15 09:04:48;;;;;;;24.15;6.28;;;;;;;23.37;58.07;102100.22;5076747;28;20044;-56
2022/06/15 09:07:41;;;;;;;24.05;6.15;;;;;;;23.38;58.33;102091.09;5075364;28;20050;-55
2022/06/15 09:10:22;;;;;;;33.25;6.25;;;;;;;23.40;57.94;102097.22;5076794;28;20131;-56
2022/06/15 09:13:20;;;;;;;32.70;7.53;;;;;;;23.39;57.92;102093.63;5075351;28;20072;-54
2022/06/15 09:16:03;;;;;;;34.78;8.30;;;;;;;23.42;57.18;102102.44;5079334;28;20075;-56
2022/06/15 09:18:45;;;;;;;28.40;7.78;;;;;;;23.43;57.20;102096.88;5077902;28;20036;-55
2022/06/15 09:21:30;;;;;;;31.30;8.77;;;;;;;23.44;57.25;102089.59;5074066;28;20045;-55
2022/06/15 09:24:11;;;;;;;26.02;7.53;;;;;;;23.46;57.38;102088.44;5077083;28;20043;-56
2022/06/15 09:26:52;;;;;;;20.38;6.25;;;;;;;23.47;56.62;102092.84;5078424;28;20103;-56
2022/06/15 09:29:35;;;;;;;25.33;7.10;;;;;;;23.49;56.95;102090.84;5079535;28;20043;-55
2022/06/15 09:32:10;;;;;;;29.58;7.78;;;;;;;23.52;56.04;102089.66;5078253;28;20040;-55
2022/06/15 09:34:41;;;;;;;27.67;7.10;;;;;;;23.54;56.30;102082.22;5081852;28;20052;-55
2022/06/15 09:37:14;;;;;;;22.42;6.65;;;;;;;23.56;55.95;102088.34;5080055;28;20048;-55
2022/06/15 09:39:40;;;;;;;22.42;7.07;;;;;;;23.58;55.78;102081.75;5077233;28;20423;-56
2022/06/15 09:42:33;;;;;;;21.83;5.85;;;;;;;23.61;56.45;102064.34;5075229;28;20430;-55
2022/06/15 09:45:26;;;;;;;16.23;5.18;;;;;;;23.63;55.42;102062.31;5074456;28;20035;-55
2022/06/15 09:48:08;;;;;;;23.70;6.78;;;;;;;23.67;55.33;102073.69;5076438;28;20045;-55
2022/06/15 09:50:45;;;;;;;20.77;5.68;;;;;;;23.69;55.46;102066.28;5078833;28;20050;-55
2022/06/15 09:53:45;;;;;;;15.38;5.15;;;;;;;23.70;55.33;102066.09;5080548;28;20053;-54
2022/06/15 09:56:15;;;;;;;20.00;5.95;;;;;;;23.73;55.26;102067.66;5075993;28;20123;-54
2022/06/15 09:58:55;;;;;;;14.50;4.82;;;;;;;23.75;55.98;102065.63;5081071;28;20044;-53
2022/06/15 10:01:28;;;;;;;17.20;5.40;;;;;;;23.77;55.32;102069.03;5078725;28;20391;-53
2022/06/15 10:03:58;;;;;;;20.75;6.00;;;;;;;23.78;55.62;102076.97;5080302;28;20327;-52
2022/06/15 10:06:45;;;;;;;15.48;5.28;;;;;;;23.80;55.65;102079.50;5078314;28;20048;-54
2022/06/15 10:09:17;;;;;;;16.08;5.55;;;;;;;23.82;nan;102074.78;5076134;28;20032;-53
2022/06/15 10:11:53;;;;;;;19.85;6.05;;;;;;;23.85;55.08;102077.19;5079987;28;20059;-53
2022/06/15 10:14:31;;;;;;;18.95;5.65;;;;;;;23.86;55.03;102081.59;5079449;28;20058;-53
2022/06/15 10:17:19;;;;;;;12.27;5.05;;;;;;;23.88;55.31;102076.88;5082769;28;20049;-53
2022/06/15 10:19:50;;;;;;;17.23;5.55;;;;;;;23.91;54.89;102073.81;5080060;28;20032;-53
2022/06/15 10:22:29;;;;;;;15.88;5.40;;;;;;;23.92;54.94;102078.25;5078216;28;20118;-52
2022/06/15 10:24:57;;;;;;;16.83;4.93;;;;;;;23.94;54.91;102072.66;5077099;28;20392;-53
2022/06/15 10:27:29;;;;;;;14.98;5.20;;;;;;;23.95;55.02;102075.19;5076562;28;20045;-50
2022/06/15 10:30:21;;;;;;;14.23;4.28;;;;;;;23.96;54.87;102071.50;5073599;28;20036;-54
2022/06/15 10:32:59;;;;;;;13.45;4.78;;;;;;;23.98;55.04;102074.88;5072388;28;20049;-55
2022/06/15 10:35:35;;;;;;;14.82;3.83;;;;;;;24.01;54.60;102079.13;5077345;28;20044;-53
2022/06/15 10:38:09;;;;;;;13.95;3.88;;;;;;;24.02;54.57;102073.53;5078611;28;20131;-55
2022/06/15 10:40:38;;;;;;;10.95;4.07;;;;;;;24.02;54.25;102070.81;5079047;28;20452;-54
2022/06/15 10:43:12;;;;;;;14.02;3.88;;;;;;;24.03;54.19;102063.53;5082431;28;20070;-55
2022/06/15 10:45:44;;;;;;;10.82;3.38;;;;;;;24.05;53.91;102078.63;5078178;28;20143;-55
2022/06/15 10:48:17;;;;;;;9.38;3.63;;;;;;;24.06;53.90;102069.47;5080830;28;20048;-54
2022/06/15 10:51:04;;;;;;;;;;;;;;;24.07;53.80;102057.63;5079003;28;20054;-55
2022/06/15 10:53:34;;;;;;;11.15;3.97;;;;;;;24.11;53.97;102067.13;5079843;28;21020;-55
2022/06/15 11:02:11;;;;;;;10.85;3.05;;;;;;;24.11;52.62;102069.81;5077664;28;20132;-55
2022/06/15 11:04:45;;;;;;;8.63;2.92;;;;;;;24.12;52.23;102060.72;5078512;28;20052;-55
2022/06/15 11:07:23;;;;;;;7.50;3.33;;;;;;;24.14;51.62;102064.09;5079557;28;20136;-55
2022/06/15 11:09:54;;;;;;;8.98;2.80;;;;;;;24.16;51.75;102063.06;5080531;28;20127;-55
2022/06/15 11:12:26;;;;;;;7.82;2.92;;;;;;;24.16;51.76;102065.78;5084404;28;20115;-54
2022/06/15 11:15:00;;;;;;;8.82;2.60;;;;;;;24.17;51.27;102060.22;5081503;28;20044;-53
2022/06/15 11:20:21;;;;;;;10.10;2.53;;;;;;;24.18;50.68;102055.63;5079476;28;20124;-54
2022/06/15 11:22:52;;;;;;;7.87;2.50;;;;;;;24.19;51.04;102060.88;5082123;28;20148;-54
2022/06/15 11:25:25;;;;;;;5.40;2.00;;;;;;;24.20;50.74;102059.88;5081518;28;20077;-55
2022/06/15 11:28:00;;;;;;;9.73;2.15;;;;;;;24.21;50.40;102067.00;5084038;28;20137;-56
2022/06/15 11:30:31;;;;;;;4.53;1.88;;;;;;;24.21;50.14;102058.88;5081017;28;20067;-55
2022/06/15 11:33:18;;;;;;;6.88;2.63;;;;;;;24.21;50.41;102056.16;5082939;28;20044;-55
2022/06/15 11:36:06;;;;;;;6.22;2.17;;;;;;;24.23;50.25;102046.00;5085948;28;20050;-56
2022/06/15 11:38:56;;;;;;;5.82;2.35;;;;;;;24.25;51.25;102056.69;5082954;28;20048;-53
2022/06/15 11:41:35;;;;;;;6.47;2.65;;;;;;;24.27;50.99;102051.94;5081793;28;20122;-55
2022/06/15 11:44:12;;;;;;;5.60;2.17;;;;;;;24.27;50.66;102052.78;5079417;28;20393;-55
2022/06/15 11:47:08;;;;;;;6.25;1.90;;;;;;;24.28;50.19;102048.19;5076492;28;20071;-53
2022/06/15 11:50:13;;;;;;;8.48;2.20;;;;;;;24.28;50.07;102043.66;5075136;28;20123;-54
2022/06/15 11:52:59;;;;;;;5.32;1.95;;;;;;;24.30;50.04;102038.91;5083457;28;20056;-55
2022/06/15 11:55:39;;;;;;;5.82;2.00;;;;;;;24.32;49.96;102036.00;5082049;28;20036;-55
2022/06/15 11:58:23;;;;;;;6.15;1.90;;;;;;;24.32;49.78;102031.47;5080776;28;20044;-54
2022/06/15 12:01:17;;;;;;;4.68;2.05;;;;;;;24.33;49.92;102040.44;5076981;28;20050;-54
2022/06/15 12:04:22;;;;;;;5.63;2.05;;;;;;;24.34;49.48;102034.00;5079049;28;20051;-54
2022/06/15 12:06:54;;;;;;;5.63;1.98;;;;;;;24.36;49.89;102031.94;5071235;28;20040;-53